Time;durP1;ratioP1;P1;durP2;ratioP2;P2;SDS_P1;SDS_P2;PMS_P1;PMS_P2;Temp;Humidity;BMP_temperature;BMP_pressure;BME280_temperature;BME280_humidity;BME280_pressure;Samples;Min_cycle;Max_cycle;Signal;HPM_P1;HPM_P2
2021/09/29 00:01:33;;;;;;;11.38;4.78;;;;;;;;;;5037213;28;19909;-83
2021/09/29 00:03:59;;;;;;;16.02;5.88;;;;;;;;;;5017986;28;20109;-86
2021/09/29 00:06:25;;;;;;;9.60;4.32;;;;;;;;;;5027155;28;20025;-85
2021/09/29 00:08:51;;;;;;;15.25;4.75;;;;;;;;;;5021306;28;20041;-81
2021/09/29 00:11:17;;;;;;;12.20;4.30;;;;;;;;;;5025330;28;20033;-84
2021/09/29 00:13:43;;;;;;;10.73;4.65;;;;;;;;;;5022482;28;20026;-85
2021/09/29 00:16:09;;;;;;;10.38;4.25;;;;;;;;;;5029969;28;20033;-85
2021/09/29 00:18:35;;;;;;;8.23;4.07;;;;;;;;;;5020294;28;20039;-83
2021/09/29 00:21:01;;;;;;;10.55;4.45;;;;;;;;;;5018999;28;20029;-84
2021/09/29 00:23:27;;;;;;;7.60;3.70;;;;;;;;;;5019233;28;20604;-82
2021/09/29 00:25:53;;;;;;;8.13;4.25;;;;;;;;;;5024977;28;20048;-86
2021/09/29 00:28:19;;;;;;;8.02;3.60;;;;;;;;;;5036983;28;20118;-83
2021/09/29 00:31:01;;;;;;;7.88;4.10;;;;;;;;;;5026092;28;20033;-82
2021/09/29 00:33:27;;;;;;;6.30;3.45;;;;;;;;;;5033875;28;20041;-85
2021/09/29 00:35:53;;;;;;;14.95;6.22;;;;;;;;;;5032342;28;20089;-84
2021/09/29 00:38:19;;;;;;;11.10;4.63;;;;;;;;;;5027824;28;20049;-85
2021/09/29 00:40:45;;;;;;;6.70;3.42;;;;;;;;;;5019983;28;20379;-82
2021/09/29 00:43:11;;;;;;;6.32;3.53;;;;;;;;;;5034590;28;20037;-82
2021/09/29 00:45:37;;;;;;;6.63;3.40;;;;;;;;;;5016233;28;20060;-77
2021/09/29 00:48:03;;;;;;;5.60;3.40;;;;;;;;;;5023540;28;20159;-85
2021/09/29 00:50:29;;;;;;;9.45;4.85;;;;;;;;;;5033987;28;20056;-81
2021/09/29 00:52:57;;;;;;;10.18;4.13;;;13.00;99.90;;;;;;5022267;28;20034;-84
2021/09/29 00:55:23;;;;;;;7.13;3.50;;;;;;;;;;5042722;28;20025;-79
2021/09/29 00:57:49;;;;;;;8.65;3.50;;;;;;;;;;5023630;28;20029;-82
2021/09/29 01:00:15;;;;;;;6.88;3.30;;;;;;;;;;5021491;28;20026;-82
2021/09/29 01:02:42;;;;;;;6.30;3.67;;;;;;;;;;5025605;28;20499;-83
2021/09/29 01:05:08;;;;;;;9.25;3.75;;;;;;;;;;5027411;28;20033;-81
2021/09/29 01:07:58;;;;;;;6.25;3.20;;;12.80;99.90;;;;;;5027569;28;20140;-82
2021/09/29 01:11:01;;;;;;;9.60;3.45;;;12.80;99.90;;;;;;5018920;28;20068;-82
2021/09/29 01:13:54;;;;;;;15.60;5.20;;;12.80;99.90;;;;;;5022897;28;20029;-81
2021/09/29 01:16:21;;;;;;;9.13;4.15;;;12.80;99.90;;;;;;5040300;28;20045;-80
2021/09/29 01:18:55;;;;;;;11.35;4.40;;;12.80;99.90;;;;;;5023884;28;20029;-82
2021/09/29 01:21:22;;;;;;;11.18;3.88;;;12.80;99.90;;;;;;5024124;28;20626;-82
2021/09/29 01:24:04;;;;;;;7.70;3.92;;;12.80;99.90;;;;;;5025420;28;20033;-81
2021/09/29 01:26:34;;;;;;;7.03;3.20;;;12.80;99.90;;;;;;5022774;28;20483;-82
2021/09/29 01:29:08;;;;;;;7.43;3.95;;;;;;;;;;5017192;28;20094;-83
2021/09/29 01:31:34;;;;;;;7.20;3.80;;;;;;;;;;5029966;28;20125;-82
2021/09/29 01:34:01;;;;;;;8.20;3.55;;;12.60;99.90;;;;;;5033994;28;20045;-84
2021/09/29 01:36:27;;;;;;;9.77;4.07;;;;;;;;;;5021994;28;20022;-81
2021/09/29 01:38:55;;;;;;;6.80;4.00;;;;;;;;;;5022442;28;20032;-83
2021/09/29 01:41:22;;;;;;;8.57;4.00;;;;;;;;;;5020419;28;20047;-82
2021/09/29 01:43:48;;;;;;;11.52;4.30;;;;;;;;;;5020548;28;20065;-82
2021/09/29 01:46:15;;;;;;;8.48;4.15;;;;;;;;;;5028575;28;20040;-82
2021/09/29 01:49:27;;;;;;;11.13;4.70;;;12.50;99.90;;;;;;5024559;28;20053;-80
2021/09/29 01:51:54;;;;;;;7.63;3.60;;;12.40;99.90;;;;;;5036522;28;20513;-82
2021/09/29 01:54:24;;;;;;;8.23;4.13;;;12.40;99.90;;;;;;5029416;28;20312;-82
2021/09/29 01:56:51;;;;;;;10.75;4.63;;;;;;;;;;5039674;28;20030;-82
2021/09/29 01:59:17;;;;;;;8.50;4.03;;;;;;;;;;5029567;28;20037;-82
2021/09/29 02:01:43;;;;;;;8.10;4.30;;;;;;;;;;5023053;28;20040;-83
2021/09/29 02:04:12;;;;;;;8.40;4.22;;;12.40;99.90;;;;;;5030283;28;20087;-81
2021/09/29 02:06:45;;;;;;;7.28;4.03;;;12.40;99.90;;;;;;5026070;28;20026;-83
2021/09/29 02:09:11;;;;;;;7.10;3.92;;;;;;;;;;5024310;28;20052;-83
2021/09/29 02:11:37;;;;;;;8.20;4.38;;;;;;;;;;5027437;28;20479;-82
2021/09/29 02:14:03;;;;;;;10.27;4.00;;;;;;;;;;5040952;28;20094;-82
2021/09/29 02:16:29;;;;;;;7.10;3.70;;;;;;;;;;5027572;28;20032;-82
2021/09/29 02:18:55;;;;;;;8.27;4.22;;;;;;;;;;5027296;28;20026;-83
2021/09/29 02:21:21;;;;;;;6.72;3.85;;;;;;;;;;5028668;28;20149;-80
2021/09/29 02:23:47;;;;;;;9.30;4.10;;;;;;;;;;5039562;28;20052;-81
2021/09/29 02:26:13;;;;;;;7.07;4.25;;;;;;;;;;5032031;28;20109;-81
2021/09/29 02:28:39;;;;;;;10.00;4.95;;;;;;;;;;5027482;28;20480;-84
2021/09/29 02:31:05;;;;;;;7.75;3.83;;;;;;;;;;5026257;28;20030;-83
2021/09/29 02:33:31;;;;;;;6.15;4.22;;;;;;;;;;5030334;28;20029;-83
2021/09/29 02:35:57;;;;;;;9.35;4.85;;;;;;;;;;5028636;28;20590;-87
2021/09/29 02:38:23;;;;;;;12.50;4.35;;;;;;;;;;5027423;28;20189;-82
2021/09/29 02:40:49;;;;;;;8.40;3.80;;;;;;;;;;5025890;28;20034;-80
2021/09/29 02:43:15;;;;;;;8.00;4.10;;;;;;;;;;5020510;28;20117;-82
2021/09/29 02:45:41;;;;;;;9.50;4.40;;;;;;;;;;5024481;28;20050;-85
2021/09/29 02:48:07;;;;;;;8.85;4.22;;;;;;;;;;5028346;28;20092;-82
2021/09/29 02:50:33;;;;;;;6.97;4.10;;;;;;;;;;5019984;28;20033;-83
2021/09/29 02:53:01;;;;;;;9.30;3.83;;;;;;;;;;5028213;28;20029;-85
2021/09/29 02:55:27;;;;;;;9.52;4.30;;;;;;;;;;5022663;28;20017;-81
2021/09/29 02:57:54;;;;;;;8.13;4.00;;;;;;;;;;5027042;28;20026;-83
2021/09/29 03:00:20;;;;;;;7.75;4.68;;;;;;;;;;5038887;28;20056;-81
2021/09/29 03:02:46;;;;;;;9.85;4.57;;;;;;;;;;5035920;28;20042;-83
2021/09/29 03:05:12;;;;;;;7.60;4.55;;;;;;;;;;5039380;28;20188;-82
2021/09/29 03:07:38;;;;;;;9.35;4.32;;;;;;;;;;5040081;28;20245;-82
2021/09/29 03:10:04;;;;;;;6.90;4.05;;;;;;;;;;5027362;28;20057;-84
2021/09/29 03:12:30;;;;;;;6.63;3.83;;;;;;;;;;5024522;28;20511;-81
2021/09/29 03:14:56;;;;;;;8.25;4.28;;;;;;;;;;5039801;28;20114;-86
2021/09/29 03:17:23;;;;;;;7.10;3.90;;;;;;;;;;5028845;28;20028;-84
2021/09/29 03:19:49;;;;;;;7.85;4.18;;;;;;;;;;5029001;28;20029;-81
2021/09/29 03:22:15;;;;;;;6.60;3.70;;;;;;;;;;5024372;28;20034;-84
2021/09/29 03:24:41;;;;;;;7.82;3.88;;;;;;;;;;5024602;28;20039;-83
2021/09/29 03:27:08;;;;;;;9.85;4.50;;;;;;;;;;5029238;28;20093;-83
2021/09/29 03:29:34;;;;;;;6.07;3.78;;;;;;;;;;5023302;28;20063;-82
2021/09/29 03:32:00;;;;;;;8.90;3.90;;;;;;;;;;5028296;28;20056;-84
2021/09/29 03:34:26;;;;;;;8.60;4.53;;;;;;;;;;5023548;28;20025;-84
2021/09/29 03:36:53;;;;;;;9.18;3.97;;;;;;;;;;5023371;28;20024;-82
2021/09/29 03:39:19;;;;;;;11.40;4.28;;;;;;;;;;5022494;28;20032;-82
2021/09/29 03:41:45;;;;;;;8.23;4.40;;;;;;;;;;5017261;28;20030;-82
2021/09/29 03:44:11;;;;;;;9.35;4.68;;;;;;;;;;5038141;28;20036;-82
2021/09/29 03:46:37;;;;;;;29.92;13.43;;;;;;;;;;5023615;28;20040;-79
2021/09/29 03:49:05;;;;;;;8.32;4.97;;;;;;;;;;5035159;28;20028;-82
2021/09/29 03:51:31;;;;;;;8.20;5.13;;;;;;;;;;5014386;28;20026;-82
2021/09/29 03:53:57;;;;;;;8.18;4.38;;;;;;;;;;5018471;28;20036;-80
2021/09/29 03:56:23;;;;;;;7.28;4.38;;;;;;;;;;5033096;28;20022;-82
2021/09/29 03:58:49;;;;;;;10.20;4.15;;;;;;;;;;5022513;28;20026;-81
2021/09/29 04:01:15;;;;;;;7.85;4.18;;;;;;;;;;5024062;28;20032;-82
2021/09/29 04:03:41;;;;;;;7.80;4.30;;;11.50;99.90;;;;;;5020176;28;20052;-84
2021/09/29 04:06:07;;;;;;;9.95;5.10;;;;;;;;;;5034654;28;20029;-80
2021/09/29 04:08:33;;;;;;;8.48;4.57;;;;;;;;;;5033812;28;20029;-81
2021/09/29 04:10:59;;;;;;;7.95;4.10;;;;;;;;;;5025389;28;20048;-83
2021/09/29 04:13:25;;;;;;;7.97;4.30;;;;;;;;;;5020976;28;20030;-84
2021/09/29 04:15:51;;;;;;;7.32;4.47;;;;;;;;;;5021813;28;20093;-81
2021/09/29 04:18:17;;;;;;;7.45;4.45;;;;;;;;;;5027038;28;20120;-83
2021/09/29 04:20:43;;;;;;;10.38;4.55;;;;;;;;;;5024389;28;20037;-82
2021/09/29 04:23:09;;;;;;;8.05;4.55;;;;;;;;;;5023249;28;20048;-83
2021/09/29 04:25:36;;;;;;;7.40;4.40;;;11.50;99.90;;;;;;5020213;28;20608;-81
2021/09/29 04:28:05;;;;;;;9.55;3.97;;;;;;;;;;5020907;28;20028;-78
2021/09/29 04:30:31;;;;;;;9.55;4.90;;;11.50;99.90;;;;;;5045826;28;20061;-81
2021/09/29 04:32:59;;;;;;;11.73;5.00;;;;;;;;;;5036789;28;20076;-81
2021/09/29 04:35:25;;;;;;;7.68;3.90;;;;;;;;;;5029056;28;20029;-81
2021/09/29 04:37:51;;;;;;;7.60;4.10;;;;;;;;;;5021000;28;20049;-83
2021/09/29 04:40:17;;;;;;;7.15;4.15;;;;;;;;;;5037011;28;20036;-83
2021/09/29 04:42:43;;;;;;;8.45;4.70;;;;;;;;;;5024698;28;20100;-82
2021/09/29 04:45:09;;;;;;;6.55;3.75;;;;;;;;;;5015639;28;20038;-84
2021/09/29 04:47:35;;;;;;;7.63;4.07;;;;;;;;;;5036073;28;20168;-81
2021/09/29 04:50:01;;;;;;;10.48;3.92;;;;;;;;;;5011595;28;20038;-81
2021/09/29 04:52:27;;;;;;;9.02;4.22;;;;;;;;;;5023597;28;20060;-82
2021/09/29 04:54:53;;;;;;;8.90;4.00;;;;;;;;;;5028835;28;20032;-83
2021/09/29 04:57:19;;;;;;;13.43;4.22;;;;;;;;;;5018505;28;20030;-81
2021/09/29 04:59:46;;;;;;;8.70;4.10;;;;;;;;;;5011983;28;20029;-81
2021/09/29 05:02:14;;;;;;;7.28;3.90;;;11.80;99.90;;;;;;5014381;28;20060;-83
2021/09/29 05:04:40;;;;;;;7.63;4.00;;;;;;;;;;5018956;28;20032;-82
2021/09/29 05:07:05;;;;;;;9.23;3.85;;;;;;;;;;5013295;28;20029;-83
2021/09/29 05:09:32;;;;;;;8.65;3.53;;;;;;;;;;5013190;28;20033;-82
2021/09/29 05:12:01;;;;;;;7.35;3.60;;;;;;;;;;5016192;28;20488;-82
2021/09/29 05:14:27;;;;;;;7.75;4.00;;;;;;;;;;5015265;28;20025;-80
2021/09/29 05:16:53;;;;;;;8.30;4.35;;;;;;;;;;5019411;28;20029;-82
2021/09/29 05:19:19;;;;;;;7.80;3.83;;;;;;;;;;5036446;28;21105;-81
2021/09/29 05:21:45;;;;;;;8.88;4.25;;;;;;;;;;5014423;28;20030;-80
2021/09/29 05:24:11;;;;;;;8.43;4.40;;;;;;;;;;5038681;28;20406;-81
2021/09/29 05:26:37;;;;;;;7.57;3.97;;;;;;;;;;5017942;28;20084;-80
2021/09/29 05:29:04;;;;;;;10.23;4.43;;;11.70;99.90;;;;;;5021023;28;20097;-82
2021/09/29 05:31:30;;;;;;;9.35;5.57;;;;;;;;;;5023924;28;20107;-82
2021/09/29 05:33:56;;;;;;;8.05;3.88;;;;;;;;;;5031934;28;20080;-81
2021/09/29 05:36:22;;;;;;;9.05;3.90;;;;;;;;;;5034876;28;20033;-80
2021/09/29 05:38:48;;;;;;;11.68;4.13;;;;;;;;;;5032086;28;20025;-79
2021/09/29 05:41:15;;;;;;;10.27;4.25;;;;;;;;;;5023377;28;20057;-82
2021/09/29 05:43:41;;;;;;;6.88;3.78;;;;;;;;;;5014330;28;20033;-79
2021/09/29 05:46:07;;;;;;;10.00;3.80;;;;;;;;;;5020524;28;20033;-79
2021/09/29 05:48:33;;;;;;;8.88;3.95;;;;;;;;;;5039926;28;20041;-83
2021/09/29 05:50:59;;;;;;;11.30;4.60;;;;;;;;;;5020774;28;20148;-81
2021/09/29 05:53:25;;;;;;;11.50;3.85;;;;;;;;;;5022072;28;20463;-82
2021/09/29 05:55:51;;;;;;;7.80;3.65;;;;;;;;;;5020895;28;20021;-81
2021/09/29 05:58:17;;;;;;;7.53;3.75;;;;;;;;;;5017561;28;20029;-83
2021/09/29 06:00:43;;;;;;;12.88;4.22;;;;;;;;;;5034047;28;20038;-80
2021/09/29 06:03:08;;;;;;;7.65;3.20;;;;;;;;;;5023117;28;20394;-79
2021/09/29 06:05:35;;;;;;;9.43;2.67;;;8.20;99.90;;;;;;5021348;28;20037;-79
2021/09/29 06:08:00;;;;;;;6.93;2.88;;;12.40;99.90;;;;;;5018529;28;20048;-81
2021/09/29 06:10:26;;;;;;;4.85;2.40;;;;;;;;;;5011803;28;20064;-83
2021/09/29 06:12:52;;;;;;;5.45;2.38;;;;;;;;;;5022268;28;20126;-82
2021/09/29 06:15:28;;;;;;;4.68;2.42;;;;;;;;;;5015431;28;20476;-84
2021/09/29 06:17:56;;;;;;;6.00;3.17;;;;;;;;;;5015069;28;20047;-79
2021/09/29 06:20:22;;;;;;;8.95;3.03;;;12.80;99.90;;;;;;5023108;28;20101;-79
2021/09/29 06:22:49;;;;;;;7.25;2.80;;;;;;;;;;5034671;28;20029;-80
2021/09/29 06:25:15;;;;;;;8.00;2.60;;;;;;;;;;5021173;28;20434;-83
2021/09/29 06:27:41;;;;;;;4.75;2.38;;;;;;;;;;5019267;28;20034;-82
2021/09/29 06:30:07;;;;;;;4.15;2.13;;;;;;;;;;5036170;28;20112;-80
2021/09/29 06:32:33;;;;;;;4.22;2.10;;;;;;;;;;5036641;28;20029;-78
2021/09/29 06:34:59;;;;;;;6.50;2.28;;;;;;;;;;5036750;28;20033;-82
2021/09/29 06:37:25;;;;;;;7.07;2.40;;;;;;;;;;5026247;28;20089;-82
2021/09/29 06:39:51;;;;;;;4.68;1.95;;;;;;;;;;5020073;28;20068;-81
2021/09/29 06:42:17;;;;;;;11.48;6.00;;;;;;;;;;5020164;28;20039;-82
2021/09/29 06:44:43;;;;;;;8.40;4.55;;;;;;;;;;5034761;28;20089;-81
2021/09/29 06:47:09;;;;;;;5.03;2.15;;;;;;;;;;5022469;28;20030;-79
2021/09/29 06:49:36;;;;;;;5.35;1.90;;;;;;;;;;5038520;28;20025;-83
2021/09/29 06:52:02;;;;;;;4.05;2.05;;;13.40;99.90;;;;;;5014443;28;20033;-83
2021/09/29 06:54:28;;;;;;;5.18;2.13;;;;;;;;;;5013335;28;20036;-82
2021/09/29 06:56:54;;;;;;;4.45;1.70;;;;;;;;;;5019972;28;20040;-82
2021/09/29 06:59:20;;;;;;;4.47;1.83;;;;;;;;;;5015068;28;20037;-83
2021/09/29 07:01:47;;;;;;;5.70;1.90;;;;;;;;;;5016469;28;20030;-85
2021/09/29 07:04:13;;;;;;;9.32;2.13;;;;;;;;;;5021302;28;20029;-82
2021/09/29 07:06:39;;;;;;;4.32;1.67;;;;;;;;;;5032858;28;20031;-81
2021/09/29 07:09:05;;;;;;;5.45;1.60;;;;;;;;;;5018382;28;20025;-80
2021/09/29 07:11:31;;;;;;;3.60;1.73;;;;;;;;;;5012515;28;20030;-81
2021/09/29 07:13:57;;;;;;;6.07;1.80;;;;;;;;;;5010071;28;20025;-80
2021/09/29 07:16:25;;;;;;;5.22;1.63;;;;;;;;;;5012235;28;20032;-80
2021/09/29 07:18:53;;;;;;;8.23;2.13;;;;;;;;;;5010792;28;20127;-81
2021/09/29 07:21:19;;;;;;;4.50;1.60;;;;;;;;;;5015946;28;20031;-80
2021/09/29 07:23:45;;;;;;;4.47;1.75;;;;;;;;;;5015546;28;20037;-80
2021/09/29 07:26:11;;;;;;;3.58;1.55;;;;;;;;;;5037774;28;20029;-83
2021/09/29 07:28:37;;;;;;;3.28;1.55;;;;;;;;;;5019881;28;20029;-84
2021/09/29 07:31:03;;;;;;;5.35;1.75;;;;;;;;;;5016511;28;20034;-82
2021/09/29 07:33:33;;;;;;;3.88;1.50;;;;;;;;;;5028483;28;20032;-82
2021/09/29 07:35:59;;;;;;;3.45;1.30;;;;;;;;;;5030900;28;20021;-79
2021/09/29 07:38:27;;;;;;;3.58;1.30;;;;;;;;;;5012882;28;20022;-80
2021/09/29 07:40:53;;;;;;;4.97;1.70;;;;;;;;;;5022738;28;20037;-81
2021/09/29 07:43:19;;;;;;;5.85;1.70;;;;;;;;;;5026850;28;20025;-81
2021/09/29 07:45:45;;;;;;;3.58;1.55;;;;;;;;;;5020918;28;20041;-81
2021/09/29 07:48:11;;;;;;;3.75;1.85;;;;;;;;;;5015400;28;20105;-79
2021/09/29 07:50:37;;;;;;;4.18;1.60;;;;;;;;;;5021209;28;20030;-79
2021/09/29 07:53:03;;;;;;;3.97;1.30;;;;;;;;;;5043304;28;20024;-79
2021/09/29 07:55:30;;;;;;;4.57;1.95;;;;;;;;;;5018845;28;20025;-84
2021/09/29 07:57:56;;;;;;;6.07;1.50;;;;;;;;;;5016411;28;20040;-81
2021/09/29 08:00:22;;;;;;;4.97;1.88;;;;;;;;;;5019416;28;20140;-82
2021/09/29 08:02:48;;;;;;;5.38;1.50;;;;;;;;;;5036996;28;20442;-82
2021/09/29 08:05:15;;;;;;;2.80;1.20;;;;;;;;;;5017762;28;20101;-85
2021/09/29 08:07:41;;;;;;;3.65;1.85;;;;;;;;;;5027355;28;20054;-85
2021/09/29 08:10:08;;;;;;;4.72;1.60;;;14.50;99.90;;;;;;5032686;28;20033;-79
2021/09/29 08:12:35;;;;;;;4.20;1.80;;;;;;;;;;5026503;28;20026;-80
2021/09/29 08:15:01;;;;;;;5.40;1.70;;;;;;;;;;5027153;28;20030;-80
2021/09/29 08:17:27;;;;;;;3.20;1.55;;;;;;;;;;5016126;28;20029;-80
2021/09/29 08:19:53;;;;;;;5.80;1.70;;;;;;;;;;5024592;28;20045;-80
2021/09/29 08:22:20;;;;;;;5.68;1.65;;;;;;;;;;5017152;28;20134;-80
2021/09/29 08:25:36;;;;;;;8.40;1.85;;;;;;;;;;5015785;28;20033;-81
2021/09/29 08:30:26;;;;;;;5.65;1.42;;;;;;;;;;5038040;28;20064;-81
2021/09/29 08:33:00;;;;;;;9.25;1.80;;;;;;;;;;5013026;28;20026;-84
2021/09/29 08:35:30;;;;;;;3.85;1.50;;;;;;;;;;5007769;28;20025;-85
2021/09/29 08:38:06;;;;;;;3.45;1.33;;;;;;;;;;5017334;28;20089;-81
2021/09/29 08:43:45;;;;;;;5.95;1.25;;;15.50;99.90;;;;;;5033107;28;20578;-81
2021/09/29 08:46:21;;;;;;;11.25;2.58;;;;;;;;;;5033926;28;20087;-80
2021/09/29 08:49:00;;;;;;;6.80;1.70;;;;;;;;;;5012442;28;20029;-80
2021/09/29 08:54:06;;;;;;;6.07;1.85;;;;;;;;;;5040636;28;20045;-80
2021/09/29 08:56:49;;;;;;;3.42;1.60;;;;;;;;;;5040011;28;20024;-82
2021/09/29 09:16:12;;;;;;;3.13;1.20;;;16.40;99.90;;;;;;5027715;28;20029;-82
2021/09/29 09:18:51;;;;;;;3.25;1.20;;;16.50;99.90;;;;;;5016071;28;20021;-84
2021/09/29 09:21:19;;;;;;;5.60;1.10;;;16.40;99.90;;;;;;5018715;28;20115;-82
2021/09/29 09:23:46;;;;;;;13.43;5.30;;;16.40;99.90;;;;;;5019068;28;20092;-84
2021/09/29 09:26:22;;;;;;;6.32;1.77;;;16.30;99.90;;;;;;5018204;28;20029;-82
2021/09/29 09:29:02;;;;;;;7.05;1.90;;;16.10;99.90;;;;;;5017116;28;20040;-81
2021/09/29 09:31:28;;;;;;;4.30;1.38;;;;;;;;;;5018802;28;20082;-81
2021/09/29 09:33:56;;;;;;;10.20;1.60;;;15.80;99.90;;;;;;5021729;28;20042;-82
2021/09/29 09:36:43;;;;;;;8.05;1.30;;;15.80;99.90;;;;;;5036984;28;20053;-81
2021/09/29 09:39:10;;;;;;;6.45;1.65;;;;;;;;;;5014871;28;20449;-82
2021/09/29 09:41:37;;;;;;;4.00;1.20;;;;;;;;;;5026058;28;20117;-85
2021/09/29 09:44:04;;;;;;;4.25;1.40;;;15.70;99.90;;;;;;5009223;28;20033;-83
2021/09/29 09:46:30;;;;;;;4.18;1.30;;;;;;;;;;5019628;28;20029;-82
2021/09/29 09:49:06;;;;;;;4.65;1.10;;;15.70;99.90;;;;;;5034088;28;20499;-82
2021/09/29 09:51:33;;;;;;;7.07;1.70;;;;;;;;;;5023990;28;20087;-82
2021/09/29 09:54:00;;;;;;;10.75;2.78;;;;;;;;;;5013885;28;20025;-85
2021/09/29 09:56:32;;;;;;;6.10;1.88;;;;;;;;;;5031940;28;20105;-82
2021/09/29 09:58:58;;;;;;;4.57;1.65;;;15.00;99.90;;;;;;5016398;28;20028;-84
2021/09/29 10:01:29;;;;;;;4.82;1.40;;;;;;;;;;5018754;28;20108;-83
2021/09/29 10:04:06;;;;;;;4.53;1.50;;;15.00;99.90;;;;;;5037282;28;20022;-83
2021/09/29 10:06:32;;;;;;;3.25;1.50;;;;;;;;;;5018205;28;20032;-84
2021/09/29 10:09:25;;;;;;;3.70;1.38;;;;;;;;;;5034258;28;20484;-84
2021/09/29 10:14:55;;;;;;;8.65;1.63;;;15.40;99.90;;;;;;5030692;28;20026;-83
2021/09/29 10:26:22;;;;;;;4.97;1.33;;;15.40;99.90;;;;;;5029669;28;20064;-86
2021/09/29 10:28:48;;;;;;;3.03;1.10;;;;;;;;;;5013552;28;20052;-83
2021/09/29 10:34:03;;;;;;;4.05;1.02;;;15.20;99.90;;;;;;5028184;28;20028;-83
2021/09/29 10:44:29;;;;;;;3.78;1.23;;;;;;;;;;5036844;28;20096;-83
2021/09/29 10:47:35;;;;;;;3.15;1.05;;;;;;;;;;5022875;28;20021;-85
2021/09/29 10:50:23;;;;;;;3.75;1.10;;;;;;;;;;5028799;28;20038;-83
2021/09/29 11:06:47;;;;;;;3.42;1.20;;;14.70;99.90;;;;;;5027453;28;20029;-82
2021/09/29 11:10:03;;;;;;;3.92;1.27;;;14.80;99.90;;;;;;5012780;28;20433;-84
2021/09/29 11:31:42;;;;;;;4.13;1.25;;;;;;;;;;5027054;28;20033;-84
2021/09/29 11:34:10;;;;;;;4.07;1.17;;;16.40;99.90;;;;;;5012435;28;20018;-84
2021/09/29 11:37:12;;;;;;;2.97;1.10;;;16.50;99.90;;;;;;5016032;28;20056;-84
2021/09/29 12:09:54;;;;;;;2.40;0.80;;;;;;;;;;5032376;28;20048;-86
2021/09/29 12:12:32;;;;;;;2.63;1.02;;;16.70;99.90;;;;;;5016434;28;20048;-84
2021/09/29 12:15:04;;;;;;;2.17;0.77;;;16.60;99.50;;;;;;5018813;28;20021;-84
2021/09/29 12:17:38;;;;;;;6.60;0.82;;;16.60;99.50;;;;;;5019549;28;20052;-82
2021/09/29 12:20:15;;;;;;;2.47;0.90;;;16.50;99.50;;;;;;5013356;28;20044;-86
2021/09/29 12:22:54;;;;;;;0.77;0.52;;;16.40;99.90;;;;;;5015072;28;20497;-82
2021/09/29 12:25:36;;;;;;;2.42;0.77;;;;;;;;;;5016692;28;20029;-82
2021/09/29 12:28:55;;;;;;;1.48;0.80;;;16.50;99.90;;;;;;5019378;28;20041;-85
2021/09/29 12:36:14;;;;;;;2.15;0.80;;;;;;;;;;5035549;28;20037;-82
2021/09/29 12:38:42;;;;;;;2.80;1.10;;;;;;;;;;5020687;28;20117;-81
2021/09/29 12:41:08;;;;;;;1.20;0.80;;;;;;;;;;5021909;28;20116;-83
2021/09/29 12:43:34;;;;;;;0.63;0.50;;;;;;;;;;5014203;28;20064;-82
2021/09/29 12:46:00;;;;;;;1.25;0.80;;;;;;;;;;5016101;28;20039;-83
2021/09/29 12:48:29;;;;;;;2.88;0.70;;;;;;;;;;5015768;28;20030;-81
2021/09/29 12:51:01;;;;;;;1.95;1.23;;;17.10;98.20;;;;;;5029237;28;22126;-81
2021/09/29 12:56:11;;;;;;;1.75;1.00;;;17.60;96.60;;;;;;5026712;28;20082;-81
2021/09/29 12:58:37;;;;;;;1.30;0.65;;;;;;;;;;5013126;28;20111;-82
2021/09/29 13:01:03;;;;;;;1.50;0.70;;;;;;;;;;5015338;28;20029;-83
2021/09/29 13:03:29;;;;;;;1.10;0.90;;;;;;;;;;5030873;28;20108;-82
2021/09/29 13:05:57;;;;;;;10.13;4.85;;;;;;;;;;5012249;28;20048;-83
2021/09/29 13:08:23;;;;;;;2.72;1.00;;;;;;;;;;5014166;28;20477;-82
2021/09/29 13:10:49;;;;;;;1.98;0.73;;;18.10;96.60;;;;;;5013592;28;20022;-82
2021/09/29 13:13:15;;;;;;;6.40;3.33;;;;;;;;;;5013951;28;20581;-80
2021/09/29 13:15:45;;;;;;;3.22;1.42;;;17.70;94.20;;;;;;5016794;28;20387;-82
2021/09/29 13:18:15;;;;;;;6.18;2.25;;;17.50;94.20;;;;;;5011555;28;20025;-82
2021/09/29 13:20:42;;;;;;;2.97;0.98;;;;;;;;;;5014131;28;20029;-84
2021/09/29 13:23:24;;;;;;;1.33;0.70;;;;;;;;;;5021223;28;20033;-83
2021/09/29 13:26:20;;;;;;;2.17;0.90;;;;;;;;;;5010807;28;20026;-84
2021/09/29 13:37:00;;;;;;;1.90;0.75;;;;;;;;;;5027729;28;20045;-85
2021/09/29 13:39:26;;;;;;;1.05;0.65;;;;;;;;;;5017438;28;20025;-83
2021/09/29 13:41:53;;;;;;;2.38;1.17;;;18.10;89.20;;;;;;5032391;28;20029;-85
2021/09/29 13:44:20;;;;;;;4.05;1.35;;;18.10;87.50;;;;;;5031506;28;20507;-85
2021/09/29 13:46:46;;;;;;;1.33;0.60;;;;;;;;;;5017765;28;20057;-81
2021/09/29 13:49:12;;;;;;;2.53;0.68;;;;;;;;;;5030576;28;20029;-81
2021/09/29 13:51:40;;;;;;;1.58;0.80;;;18.40;87.80;;;;;;5032141;28;20116;-83
2021/09/29 13:54:25;;;;;;;1.90;0.65;;;18.60;88.50;;;;;;5019019;28;20037;-82
2021/09/29 13:57:09;;;;;;;1.73;0.50;;;18.70;85.10;;;;;;5021765;28;20029;-83
2021/09/29 14:00:02;;;;;;;1.05;0.45;;;;;;;;;;5035342;28;20037;-82
2021/09/29 14:32:42;;;;;;;1.83;0.75;;;18.60;84.40;;;;;;5031415;28;20391;-83
2021/09/29 14:35:08;;;;;;;2.88;1.00;;;18.60;79.60;;;;;;5008568;28;20112;-80
2021/09/29 14:37:34;;;;;;;3.75;0.77;;;;;;;;;;5015028;28;20030;-82
2021/09/29 14:40:00;;;;;;;3.90;1.00;;;;;;;;;;5023595;28;20033;-84
2021/09/29 14:42:26;;;;;;;3.05;0.90;;;;;;;;;;5007888;28;20033;-83
2021/09/29 14:44:52;;;;;;;2.88;0.70;;;;;;;;;;5011114;28;21175;-82
2021/09/29 14:47:18;;;;;;;2.17;0.80;;;;;;;;;;5015848;28;20117;-81
2021/09/29 14:49:44;;;;;;;1.70;1.00;;;17.80;82.10;;;;;;5029532;28;20053;-81
2021/09/29 14:52:12;;;;;;;2.13;0.70;;;17.80;82.60;;;;;;5033038;28;20026;-82
2021/09/29 14:54:38;;;;;;;2.47;0.73;;;;;;;;;;5016359;28;20056;-83
2021/09/29 14:57:10;;;;;;;2.53;0.90;;;;;;;;;;5014127;28;20105;-82
2021/09/29 14:59:37;;;;;;;4.00;0.85;;;17.80;80.70;;;;;;5017631;28;20033;-81
2021/09/29 15:02:03;;;;;;;1.90;0.70;;;;;;;;;;5030898;28;20510;-84
2021/09/29 15:04:29;;;;;;;3.17;0.80;;;;;;;;;;5017876;28;20025;-81
2021/09/29 15:06:55;;;;;;;1.45;0.70;;;;;;;;;;5015124;28;20068;-83
2021/09/29 15:09:21;;;;;;;2.63;0.82;;;;;;;;;;5027341;28;20029;-80
2021/09/29 15:11:48;;;;;;;2.85;0.80;;;;;;;;;;5016372;28;20131;-81
2021/09/29 15:14:17;;;;;;;2.40;1.13;;;;;;;;;;5010555;28;20026;-84
2021/09/29 15:17:31;;;;;;;3.55;1.20;;;;;;;;;;5012724;28;20026;-82
2021/09/29 15:19:51;;;;;;;3.70;0.88;;;;;;;;;;5018403;28;20471;-84
2021/09/29 15:25:16;;;;;;;3.15;1.23;;;16.90;86.80;;;;;;5032948;28;20036;-83
2021/09/29 15:28:08;;;;;;;4.93;1.33;;;16.70;88.10;;;;;;5016611;28;20041;-85
2021/09/29 16:00:18;;;;;;;3.05;1.25;;;;;;;;;;5029895;28;20426;-81
2021/09/29 16:02:49;;;;;;;2.72;0.98;;;;;;;;;;5035190;28;20094;-81
2021/09/29 16:15:57;;;;;;;1.90;0.80;;;;;;;;;;5034651;28;20036;-85
2021/09/29 16:32:02;;;;;;;5.70;1.30;;;15.00;91.80;;;;;;5033266;28;20055;-79
2021/09/29 16:34:33;;;;;;;2.72;1.10;;;;;;;;;;5035362;28;20021;-80
2021/09/29 16:36:59;;;;;;;3.15;0.98;;;;;;;;;;5033492;28;20401;-81
2021/09/29 16:39:26;;;;;;;2.40;1.27;;;;;;;;;;5016054;28;20029;-83
2021/09/29 16:41:52;;;;;;;4.18;1.13;;;;;;;;;;5019654;28;20033;-83
2021/09/29 16:44:18;;;;;;;3.38;1.02;;;;;;;;;;5029269;28;20174;-81
2021/09/29 16:46:47;;;;;;;2.15;1.00;;;;;;;;;;5033724;28;20040;-81
2021/09/29 16:49:18;;;;;;;4.65;1.83;;;;;;;;;;5014693;28;20053;-82
2021/09/29 16:51:49;;;;;;;1.83;1.10;;;;;;;;;;5027621;28;20037;-81
2021/09/29 16:54:18;;;;;;;5.82;2.35;;;;;;;;;;5030631;28;20071;-80
2021/09/29 16:56:44;;;;;;;2.83;1.00;;;;;;;;;;5012836;28;20048;-82
2021/09/29 16:59:29;;;;;;;2.83;1.13;;;;;;;;;;5026354;28;20033;-79
2021/09/29 17:01:59;;;;;;;3.92;1.60;;;;;;;;;;5008239;28;20034;-84
2021/09/29 17:04:25;;;;;;;2.88;1.35;;;14.30;91.30;;;;;;5013297;28;20033;-80
2021/09/29 17:06:54;;;;;;;2.47;1.20;;;14.30;91.50;;;;;;5007224;28;20038;-81
2021/09/29 17:09:20;;;;;;;4.90;1.75;;;;;;;;;;5002126;28;20044;-81
2021/09/29 17:11:48;;;;;;;3.67;1.50;;;;;;;;;;5018486;28;20030;-82
2021/09/29 17:14:14;;;;;;;2.85;1.40;;;;;;;;;;5007411;28;20678;-82
2021/09/29 17:16:40;;;;;;;4.93;2.45;;;;;;;;;;5019288;28;20073;-83
2021/09/29 17:19:06;;;;;;;4.75;1.33;;;;;;;;;;5022617;28;20570;-83
2021/09/29 17:21:34;;;;;;;2.22;1.38;;;;;;;;;;5004985;28;20066;-83
2021/09/29 17:24:00;;;;;;;3.72;1.40;;;;;;;;;;5022859;28;20036;-82
2021/09/29 17:26:26;;;;;;;4.13;1.38;;;;;;;;;;5020534;28;20029;-81
2021/09/29 17:28:57;;;;;;;3.75;1.77;;;;;;;;;;5002187;28;20057;-81
2021/09/29 17:31:35;;;;;;;5.03;1.05;;;;;;;;;;5002075;28;20030;-81
2021/09/29 17:34:20;;;;;;;5.57;1.58;;;;;;;;;;5006990;28;20125;-80
2021/09/29 17:53:00;;;;;;;2.70;1.30;;;;;;;;;;5026853;28;20040;-78
2021/09/29 17:55:26;;;;;;;2.95;1.40;;;;;;;;;;5030153;28;20014;-80
2021/09/29 17:57:52;;;;;;;3.70;1.30;;;;;;;;;;5020491;28;20387;-80
2021/09/29 18:00:18;;;;;;;4.97;1.10;;;13.60;94.00;;;;;;5013873;28;20088;-80
2021/09/29 18:05:30;;;;;;;2.88;1.20;;;14.70;94.40;;;;;;5023477;28;20064;-81
2021/09/29 18:07:56;;;;;;;2.78;1.10;;;;;;;;;;5000571;28;20021;-79
2021/09/29 18:10:22;;;;;;;4.45;1.80;;;;;;;;;;5021259;28;20037;-79
2021/09/29 18:12:49;;;;;;;2.92;1.20;;;;;;;;;;5022355;28;20080;-78
2021/09/29 18:15:15;;;;;;;4.55;1.50;;;;;;;;;;5013343;28;20112;-83
2021/09/29 18:17:41;;;;;;;3.80;1.52;;;;;;;;;;5022777;28;20018;-80